createdAt,value
2023-02-06T00:01:17.390Z,16.93
2023-02-06T00:03:44.753Z,13.97
2023-02-06T00:06:12.170Z,14.00
2023-02-06T00:08:39.533Z,15.63
2023-02-06T00:11:08.234Z,14.53
2023-02-06T00:13:37.257Z,14.77
2023-02-06T00:16:04.743Z,15.60
2023-02-06T00:18:32.158Z,15.27
2023-02-06T00:20:59.480Z,16.30
2023-02-06T00:23:26.814Z,16.73
2023-02-06T00:25:54.134Z,13.30
2023-02-06T00:28:21.478Z,15.03
2023-02-06T00:30:50.200Z,14.67
2023-02-06T00:33:17.562Z,15.50
2023-02-06T00:35:44.865Z,17.57
2023-02-06T00:38:12.507Z,14.57
2023-02-06T00:40:39.922Z,16.93
2023-02-06T00:43:07.261Z,15.13
2023-02-06T00:45:35.180Z,16.40
2023-02-06T00:48:04.497Z,14.83
2023-02-06T00:50:31.840Z,15.73
2023-02-06T00:52:59.174Z,16.07
2023-02-06T00:55:26.516Z,15.20
2023-02-06T00:57:53.856Z,15.50
2023-02-06T01:00:21.293Z,14.20
2023-02-06T01:02:48.738Z,14.97
2023-02-06T01:05:17.518Z,15.47
2023-02-06T01:07:45.092Z,13.80
2023-02-06T01:10:12.959Z,13.90
2023-02-06T01:12:40.409Z,14.63
2023-02-06T01:15:08.449Z,15.33
2023-02-06T01:17:35.817Z,14.10
2023-02-06T01:20:03.133Z,12.60
2023-02-06T01:22:33.588Z,12.47
2023-02-06T01:25:00.932Z,11.40
2023-02-06T01:27:28.289Z,11.90
2023-02-06T01:29:55.652Z,13.10
2023-02-06T01:32:23.013Z,11.73
2023-02-06T01:34:50.328Z,13.53
2023-02-06T01:37:17.648Z,12.20
2023-02-06T01:39:46.333Z,12.90
2023-02-06T01:42:14.348Z,13.03
2023-02-06T01:44:42.821Z,12.20
2023-02-06T01:47:10.764Z,13.60
2023-02-06T01:49:39.171Z,13.27
2023-02-06T01:52:10.605Z,13.07
2023-02-06T01:54:38.041Z,12.23
2023-02-06T01:57:07.904Z,12.67
2023-02-06T01:59:35.601Z,12.40
2023-02-06T02:02:03.387Z,12.83
2023-02-06T02:04:32.833Z,12.63
2023-02-06T02:07:05.890Z,12.63
2023-02-06T02:09:34.507Z,13.37
2023-02-06T02:12:01.924Z,11.23
2023-02-06T02:14:30.807Z,12.27
2023-02-06T02:17:04.238Z,10.93
2023-02-06T02:19:46.488Z,12.87
2023-02-06T02:22:40.708Z,12.57
2023-02-06T02:25:26.577Z,11.13
2023-02-06T02:28:04.818Z,12.00
2023-02-06T02:30:50.804Z,13.23
2023-02-06T02:33:27.319Z,11.60
2023-02-06T02:35:56.501Z,11.63
2023-02-06T02:38:30.520Z,12.73
2023-02-06T02:41:00.474Z,13.23
2023-02-06T02:43:31.756Z,11.30
2023-02-06T02:46:02.092Z,12.30
2023-02-06T02:48:31.413Z,12.83
2023-02-06T02:51:00.908Z,12.97
2023-02-06T02:53:28.457Z,13.27
2023-02-06T02:55:56.011Z,13.83
2023-02-06T02:58:26.422Z,12.83
2023-02-06T03:00:56.028Z,13.63
2023-02-06T03:03:24.608Z,15.00
2023-02-06T03:05:56.644Z,14.10
2023-02-06T03:08:28.986Z,11.80
2023-02-06T03:11:03.781Z,13.53
2023-02-06T03:13:32.967Z,12.53
2023-02-06T03:16:03.321Z,13.90
2023-02-06T03:18:34.676Z,13.07
2023-02-06T03:21:02.879Z,12.90
2023-02-06T03:23:32.643Z,12.03
2023-02-06T03:26:01.773Z,11.93
2023-02-06T03:28:33.304Z,13.20
2023-02-06T03:31:03.555Z,12.33
2023-02-06T03:33:32.681Z,12.20
2023-02-06T03:36:00.447Z,12.23
2023-02-06T03:38:28.518Z,12.37
2023-02-06T03:40:58.868Z,13.40
2023-02-06T03:43:28.601Z,13.03
2023-02-06T03:45:58.115Z,11.93
2023-02-06T03:48:28.722Z,13.67
2023-02-06T03:50:56.674Z,13.90
2023-02-06T03:53:24.836Z,13.63
2023-02-06T03:55:54.708Z,11.50
2023-02-06T03:58:24.618Z,11.30
2023-02-06T04:00:52.880Z,12.97
2023-02-06T04:03:21.502Z,13.67
2023-02-06T04:05:48.876Z,13.73
2023-02-06T04:08:16.407Z,14.40
2023-02-06T04:10:43.757Z,13.57
2023-02-06T04:13:11.123Z,13.17
2023-02-06T04:15:39.798Z,13.90
2023-02-06T04:18:07.179Z,13.90
2023-02-06T04:20:40.685Z,13.27
2023-02-06T04:23:08.658Z,13.00
2023-02-06T04:25:36.340Z,13.93
2023-02-06T04:28:03.905Z,13.17
2023-02-06T04:30:31.288Z,13.30
2023-02-06T04:32:59.995Z,14.03
2023-02-06T04:35:27.318Z,13.03
2023-02-06T04:37:54.639Z,12.80
2023-02-06T04:40:22.035Z,11.73
2023-02-06T04:42:49.416Z,12.00
2023-02-06T04:45:16.823Z,12.60
2023-02-06T04:47:44.198Z,13.83
2023-02-06T04:50:13.198Z,11.13
2023-02-06T04:52:40.542Z,11.17
2023-02-06T04:55:08.305Z,10.97
2023-02-06T04:57:35.636Z,11.20
2023-02-06T05:00:03.012Z,10.80
2023-02-06T05:02:30.348Z,10.87
2023-02-06T05:04:57.698Z,11.87
2023-02-06T05:07:26.431Z,10.23
2023-02-06T05:09:53.743Z,9.17
2023-02-06T05:12:21.153Z,11.03
2023-02-06T05:14:48.481Z,10.53
2023-02-06T05:17:15.811Z,10.00
2023-02-06T05:19:43.339Z,10.03
2023-02-06T05:22:10.674Z,9.53
2023-02-06T05:24:39.770Z,9.67
2023-02-06T05:27:07.101Z,9.77
2023-02-06T05:29:34.428Z,9.13
2023-02-06T05:32:01.834Z,8.90
2023-02-06T05:34:29.206Z,8.73
2023-02-06T05:36:56.619Z,7.93
2023-02-06T05:39:24.230Z,8.83
2023-02-06T05:41:52.946Z,8.87
2023-02-06T05:44:20.289Z,7.97
2023-02-06T05:46:48.518Z,8.40
2023-02-06T05:49:16.018Z,8.30
2023-02-06T05:51:43.375Z,9.73
2023-02-06T05:54:10.697Z,11.90
2023-02-06T05:56:38.056Z,9.53
2023-02-06T05:59:06.734Z,16.43
2023-02-06T06:01:34.047Z,9.87
2023-02-06T06:04:01.407Z,13.33
2023-02-06T06:06:28.758Z,16.00
2023-02-06T06:08:56.177Z,11.40
2023-02-06T06:11:23.501Z,10.73
2023-02-06T06:13:50.883Z,9.67
2023-02-06T06:16:19.608Z,9.10
2023-02-06T06:18:46.991Z,9.80
2023-02-06T06:21:15.114Z,8.20
2023-02-06T06:23:42.445Z,8.47
2023-02-06T06:26:09.872Z,7.93
2023-02-06T06:28:38.501Z,9.47
2023-02-06T06:31:07.248Z,8.47
2023-02-06T06:33:35.980Z,12.87
2023-02-06T06:36:03.321Z,11.10
2023-02-06T06:38:30.648Z,10.87
2023-02-06T06:40:57.988Z,11.10
2023-02-06T06:43:25.578Z,10.43
2023-02-06T06:45:53.031Z,11.23
2023-02-06T06:48:20.400Z,9.90
2023-02-06T06:50:49.293Z,10.30
2023-02-06T06:53:16.642Z,9.67
2023-02-06T06:55:44.296Z,9.27
2023-02-06T06:58:11.752Z,9.43
2023-02-06T07:00:39.869Z,9.23
2023-02-06T07:03:07.351Z,9.03
2023-02-06T07:05:35.553Z,9.27
2023-02-06T07:08:04.466Z,9.10
2023-02-06T07:10:31.869Z,9.07
2023-02-06T07:12:59.198Z,8.87
2023-02-06T07:15:26.579Z,9.27
2023-02-06T07:17:53.978Z,9.47
2023-02-06T07:20:21.307Z,9.20
2023-02-06T07:22:50.197Z,9.43
2023-02-06T07:25:20.240Z,8.40
2023-02-06T07:27:47.714Z,8.57
2023-02-06T07:30:15.655Z,9.03
2023-02-06T07:32:42.989Z,8.30
2023-02-06T07:35:10.393Z,7.17
2023-02-06T07:37:37.730Z,7.60
2023-02-06T07:40:06.068Z,8.30
2023-02-06T07:42:34.729Z,7.27
2023-02-06T07:45:02.065Z,7.30
2023-02-06T07:47:29.395Z,7.43
2023-02-06T07:49:56.709Z,7.27
2023-02-06T07:52:24.061Z,7.87
2023-02-06T07:54:51.373Z,6.10
2023-02-06T07:57:19.071Z,6.70
2023-02-06T07:59:47.748Z,7.60
2023-02-06T08:02:15.063Z,7.03
2023-02-06T08:04:42.505Z,6.73
2023-02-06T08:07:14.758Z,7.33
2023-02-06T08:09:42.351Z,6.90
2023-02-06T08:12:11.859Z,7.03
2023-02-06T08:14:39.512Z,7.13
2023-02-06T08:17:08.601Z,7.63
2023-02-06T08:19:35.970Z,6.67
2023-02-06T08:22:03.297Z,6.67
2023-02-06T08:24:30.653Z,6.80
2023-02-06T08:26:57.987Z,6.20
2023-02-06T08:29:25.615Z,6.00
2023-02-06T08:31:53.248Z,6.30
2023-02-06T08:34:21.977Z,6.43
2023-02-06T08:36:49.292Z,6.20
2023-02-06T08:39:18.088Z,6.43
2023-02-06T08:41:45.660Z,5.30
2023-02-06T08:44:14.364Z,5.90
2023-02-06T08:46:41.753Z,7.27
2023-02-06T08:49:12.008Z,6.00
2023-02-06T08:51:40.759Z,6.97
2023-02-06T08:54:09.425Z,6.37
2023-02-06T08:56:37.926Z,7.20
2023-02-06T08:59:05.766Z,9.83
2023-02-06T09:01:34.947Z,7.63
2023-02-06T09:04:03.433Z,9.97
2023-02-06T09:06:31.918Z,7.40
2023-02-06T09:09:00.607Z,7.33
2023-02-06T09:11:27.982Z,9.03
2023-02-06T09:13:56.168Z,7.30
2023-02-06T09:16:24.291Z,6.80
2023-02-06T09:18:54.218Z,6.10
2023-02-06T09:21:22.550Z,6.30
2023-02-06T09:23:51.391Z,5.80
2023-02-06T09:26:23.019Z,6.03
2023-02-06T09:28:52.332Z,5.83
2023-02-06T09:31:19.682Z,5.80
2023-02-06T09:33:47.241Z,4.60
2023-02-06T09:36:16.130Z,5.43
2023-02-06T09:38:44.209Z,4.70
2023-02-06T09:41:14.325Z,4.53
2023-02-06T09:43:44.870Z,4.93
2023-02-06T09:46:14.730Z,5.13
2023-02-06T09:48:43.303Z,5.17
2023-02-06T09:51:16.372Z,5.50
2023-02-06T09:53:48.058Z,5.53
2023-02-06T09:56:18.184Z,4.63
2023-02-06T09:58:50.121Z,4.53
2023-02-06T10:01:20.425Z,5.00
2023-02-06T10:03:52.895Z,6.30
2023-02-06T10:06:21.525Z,5.87
2023-02-06T10:08:52.537Z,5.63
2023-02-06T10:11:22.386Z,5.57
2023-02-06T10:13:54.027Z,4.77
2023-02-06T10:16:31.193Z,6.33
2023-02-06T10:19:00.896Z,6.27
2023-02-06T10:21:31.454Z,4.77
2023-02-06T10:24:01.571Z,5.20
2023-02-06T10:26:29.519Z,5.07
2023-02-06T10:29:00.466Z,5.43
2023-02-06T10:31:36.597Z,5.37
2023-02-06T10:34:14.432Z,4.87
2023-02-06T10:36:47.106Z,4.47
2023-02-06T10:39:30.519Z,5.10
2023-02-06T10:42:00.749Z,5.90
2023-02-06T10:44:31.310Z,4.37
2023-02-06T10:46:58.805Z,4.83
2023-02-06T10:49:30.348Z,4.60
2023-02-06T10:51:59.147Z,4.40
2023-02-06T10:54:28.819Z,4.83
2023-02-06T10:56:59.004Z,4.93
2023-02-06T10:59:29.373Z,4.67
2023-02-06T11:02:01.902Z,4.33
2023-02-06T11:04:34.066Z,5.23
2023-02-06T11:07:02.403Z,5.10
2023-02-06T11:09:30.144Z,5.10
2023-02-06T11:11:58.120Z,4.73
2023-02-06T11:14:28.281Z,5.00
2023-02-06T11:16:56.906Z,4.80
2023-02-06T11:19:27.271Z,5.33
2023-02-06T11:21:56.385Z,4.90
2023-02-06T11:24:24.639Z,4.80
2023-02-06T11:26:53.389Z,4.77
2023-02-06T11:29:21.847Z,4.43
2023-02-06T11:31:50.775Z,4.30
2023-02-06T11:34:22.148Z,4.40
2023-02-06T11:36:53.861Z,4.10
2023-02-06T11:39:22.665Z,4.30
2023-02-06T11:41:57.459Z,4.37
2023-02-06T11:44:25.655Z,4.13
2023-02-06T11:46:53.005Z,4.00
2023-02-06T11:49:25.515Z,4.50
2023-02-06T11:51:54.998Z,4.07
2023-02-06T11:54:23.954Z,4.13
2023-02-06T11:56:58.884Z,3.93
2023-02-06T11:59:27.613Z,4.10
2023-02-06T12:01:55.311Z,3.33
2023-02-06T12:04:25.141Z,3.43
2023-02-06T12:07:02.020Z,3.20
2023-02-06T12:09:29.550Z,3.73
2023-02-06T12:11:59.890Z,3.67
2023-02-06T12:14:31.171Z,3.47
2023-02-06T12:16:59.988Z,3.23
2023-02-06T12:19:31.678Z,3.47
2023-02-06T12:22:03.227Z,3.30
2023-02-06T12:24:32.340Z,3.80
2023-02-06T12:27:01.649Z,3.40
2023-02-06T12:29:33.309Z,3.30
2023-02-06T12:32:05.635Z,3.83
2023-02-06T12:34:42.868Z,3.47
2023-02-06T12:37:15.107Z,3.57
2023-02-06T12:39:43.146Z,3.77
2023-02-06T12:42:28.453Z,3.90
2023-02-06T12:44:58.155Z,4.90
2023-02-06T12:47:29.033Z,3.80
2023-02-06T12:49:58.647Z,3.53
2023-02-06T12:52:30.918Z,3.90
2023-02-06T12:55:04.376Z,5.03
2023-02-06T12:57:32.397Z,4.00
2023-02-06T13:00:09.549Z,4.20
2023-02-06T13:02:51.959Z,4.43
2023-02-06T13:05:23.082Z,4.13
2023-02-06T13:07:52.414Z,4.03
2023-02-06T13:10:20.424Z,4.93
2023-02-06T13:12:53.834Z,4.33
2023-02-06T13:15:22.157Z,4.30
2023-02-06T13:17:51.200Z,4.40
2023-02-06T13:20:20.233Z,4.37
2023-02-06T13:22:49.336Z,3.90
2023-02-06T13:25:36.307Z,4.43
2023-02-06T13:28:28.785Z,5.00
2023-02-06T13:31:00.751Z,4.23
2023-02-06T13:33:38.798Z,3.80
2023-02-06T13:36:07.083Z,5.00
2023-02-06T13:38:38.066Z,4.33
2023-02-06T13:41:27.947Z,5.03
2023-02-06T13:43:57.784Z,4.50
2023-02-06T13:46:27.520Z,4.40
2023-02-06T13:49:06.220Z,4.43
2023-02-06T13:51:40.808Z,5.23
2023-02-06T13:54:23.093Z,4.07
2023-02-06T13:57:01.580Z,4.00
2023-02-06T13:59:31.030Z,4.10
2023-02-06T14:02:04.009Z,4.40
2023-02-06T14:04:33.346Z,3.87
2023-02-06T14:07:15.606Z,5.03
2023-02-06T14:09:53.464Z,4.57
2023-02-06T14:12:35.032Z,4.07
2023-02-06T14:15:07.953Z,4.47
2023-02-06T14:17:40.702Z,4.87
2023-02-06T14:20:14.810Z,4.40
2023-02-06T14:22:45.214Z,5.03
2023-02-06T14:25:17.149Z,4.60
2023-02-06T14:27:51.782Z,5.17
2023-02-06T14:30:25.712Z,4.50
2023-02-06T14:32:57.150Z,3.97
2023-02-06T14:35:45.639Z,4.70
2023-02-06T14:38:31.489Z,4.60
2023-02-06T14:40:59.562Z,3.70
2023-02-06T14:43:28.361Z,4.40
2023-02-06T14:46:06.944Z,4.37
2023-02-06T14:48:38.273Z,4.27
2023-02-06T14:51:06.474Z,3.80
2023-02-06T14:53:35.919Z,4.10
2023-02-06T14:56:07.631Z,3.87
2023-02-06T14:58:35.221Z,3.63
2023-02-06T15:01:14.915Z,3.90
2023-02-06T15:03:42.583Z,3.60
2023-02-06T15:06:11.102Z,4.63
2023-02-06T15:08:38.898Z,4.50
2023-02-06T15:11:07.462Z,4.60
2023-02-06T15:13:35.762Z,4.20
2023-02-06T15:16:04.730Z,4.20
2023-02-06T15:18:33.723Z,4.40
2023-02-06T15:21:02.765Z,4.23
2023-02-06T15:23:37.013Z,3.90
2023-02-06T15:26:06.232Z,3.57
2023-02-06T15:28:34.668Z,3.57
2023-02-06T15:31:02.510Z,3.60
2023-02-06T15:33:30.925Z,4.13
2023-02-06T15:36:01.267Z,4.23
2023-02-06T15:38:30.028Z,5.07
2023-02-06T15:40:58.905Z,3.67
2023-02-06T15:43:26.756Z,3.70
2023-02-06T15:45:55.648Z,3.70
2023-02-06T15:48:25.515Z,3.50
2023-02-06T15:50:56.665Z,3.73
2023-02-06T15:53:31.208Z,3.30
2023-02-06T15:55:58.646Z,3.57
2023-02-06T15:58:26.841Z,3.07
2023-02-06T16:00:55.655Z,4.10
2023-02-06T16:03:24.283Z,3.33
2023-02-06T16:05:52.457Z,3.30
2023-02-06T16:08:21.642Z,4.00
2023-02-06T16:10:51.444Z,3.80
2023-02-06T16:13:20.506Z,3.60
2023-02-06T16:16:02.271Z,3.50
2023-02-06T16:18:30.852Z,3.30
2023-02-06T16:21:11.853Z,3.73
2023-02-06T16:23:46.292Z,4.00
2023-02-06T16:26:17.475Z,4.00
2023-02-06T16:28:53.358Z,3.37
2023-02-06T16:31:20.959Z,3.13
2023-02-06T16:33:49.333Z,3.20
2023-02-06T16:36:17.629Z,3.40
2023-02-06T16:38:54.006Z,3.23
2023-02-06T16:41:32.907Z,3.60
2023-02-06T16:44:00.969Z,3.37
2023-02-06T16:46:28.609Z,3.03
2023-02-06T16:48:56.628Z,3.20
2023-02-06T16:51:26.201Z,3.57
2023-02-06T16:53:53.868Z,3.43
2023-02-06T16:56:21.886Z,3.20
2023-02-06T16:58:50.781Z,4.00
2023-02-06T17:01:21.971Z,4.70
2023-02-06T17:03:49.675Z,4.60
2023-02-06T17:06:19.946Z,5.03
2023-02-06T17:08:47.395Z,4.90
2023-02-06T17:11:14.958Z,4.23
2023-02-06T17:13:42.490Z,4.10
2023-02-06T17:16:14.725Z,3.70
2023-02-06T17:18:42.142Z,4.10
2023-02-06T17:21:12.097Z,4.17
2023-02-06T17:23:39.478Z,4.13
2023-02-06T17:26:06.890Z,4.07
2023-02-06T17:28:34.242Z,4.07
2023-02-06T17:31:01.698Z,3.50
2023-02-06T17:33:30.426Z,4.00
2023-02-06T17:35:57.853Z,4.00
2023-02-06T17:38:25.191Z,4.60
2023-02-06T17:40:52.566Z,4.60
2023-02-06T17:43:19.902Z,5.23
2023-02-06T17:45:47.824Z,5.17
2023-02-06T17:48:15.168Z,5.53
2023-02-06T17:50:44.058Z,5.40
2023-02-06T17:53:13.785Z,5.07
2023-02-06T17:55:41.458Z,5.00
2023-02-06T17:58:09.029Z,4.87
2023-02-06T18:00:36.679Z,4.83
2023-02-06T18:03:05.126Z,4.70
2023-02-06T18:05:32.523Z,4.60
2023-02-06T18:08:01.172Z,4.20
2023-02-06T18:10:28.508Z,5.37
2023-02-06T18:12:55.961Z,4.80
2023-02-06T18:15:23.306Z,4.70
2023-02-06T18:17:51.470Z,4.27
2023-02-06T18:20:19.665Z,4.67
2023-02-06T18:22:47.290Z,4.30
2023-02-06T18:25:16.540Z,4.70
2023-02-06T18:27:45.944Z,4.63
2023-02-06T18:30:14.419Z,4.07
2023-02-06T18:32:41.785Z,4.00
2023-02-06T18:35:09.375Z,4.13
2023-02-06T18:37:36.800Z,3.77
2023-02-06T18:40:04.453Z,4.27
2023-02-06T18:42:50.715Z,4.40
2023-02-06T18:45:18.193Z,4.50
2023-02-06T18:47:46.327Z,3.87
2023-02-06T18:50:14.058Z,4.77
2023-02-06T18:52:41.415Z,3.90
2023-02-06T18:55:09.231Z,4.03
2023-02-06T18:57:37.932Z,4.30
2023-02-06T19:00:05.898Z,4.57
2023-02-06T19:02:33.350Z,4.30
2023-02-06T19:05:00.929Z,4.37
2023-02-06T19:07:28.344Z,3.93
2023-02-06T19:09:59.034Z,3.70
2023-02-06T19:12:28.011Z,3.87
2023-02-06T19:14:56.830Z,4.43
2023-02-06T19:17:24.511Z,3.73
2023-02-06T19:19:51.846Z,3.40
2023-02-06T19:22:19.523Z,4.30
2023-02-06T19:24:46.872Z,2.90
2023-02-06T19:27:14.270Z,3.13
2023-02-06T19:29:42.114Z,3.00
2023-02-06T19:32:10.850Z,3.10
2023-02-06T19:34:39.680Z,3.47
2023-02-06T19:37:08.074Z,2.63
2023-02-06T19:39:36.904Z,2.90
2023-02-06T19:42:06.685Z,2.83
2023-02-06T19:44:34.562Z,2.70
2023-02-06T19:47:01.983Z,2.30
2023-02-06T19:49:30.703Z,2.40
2023-02-06T19:51:58.021Z,2.20
2023-02-06T19:54:25.354Z,2.23
2023-02-06T19:56:52.714Z,2.40
2023-02-06T19:59:20.887Z,2.50
2023-02-06T20:01:48.900Z,2.17
2023-02-06T20:04:16.643Z,2.30
2023-02-06T20:06:45.570Z,2.40
2023-02-06T20:09:14.110Z,2.57
2023-02-06T20:11:42.018Z,2.33
2023-02-06T20:14:09.672Z,2.60
2023-02-06T20:16:39.129Z,2.30
2023-02-06T20:19:07.372Z,2.67
2023-02-06T20:21:38.969Z,2.20
2023-02-06T20:24:09.020Z,2.20
2023-02-06T20:26:38.180Z,2.10
2023-02-06T20:29:06.253Z,2.20
2023-02-06T20:31:34.332Z,2.70
2023-02-06T20:34:01.995Z,2.83
2023-02-06T20:36:29.982Z,2.70
2023-02-06T20:38:58.148Z,2.80
2023-02-06T20:41:27.739Z,2.70
2023-02-06T20:43:56.607Z,2.80
2023-02-06T20:46:23.988Z,2.33
2023-02-06T20:48:55.310Z,2.50
2023-02-06T20:51:22.717Z,2.17
2023-02-06T20:53:50.290Z,2.30
2023-02-06T20:56:18.235Z,2.60
2023-02-06T20:58:47.217Z,2.37
2023-02-06T21:01:15.324Z,2.57
2023-02-06T21:03:42.653Z,2.33
2023-02-06T21:06:10.038Z,2.47
2023-02-06T21:08:37.383Z,2.70
2023-02-06T21:11:05.267Z,2.90
2023-02-06T21:13:32.612Z,2.90
2023-02-06T21:16:01.718Z,2.63
2023-02-06T21:18:29.977Z,2.30
2023-02-06T21:20:57.829Z,2.50
2023-02-06T21:23:25.506Z,2.40
2023-02-06T21:25:53.293Z,2.50
2023-02-06T21:28:20.867Z,2.10
2023-02-06T21:30:49.046Z,2.20
2023-02-06T21:33:18.106Z,2.20
2023-02-06T21:35:49.767Z,2.20
2023-02-06T21:38:17.267Z,2.13
2023-02-06T21:40:44.820Z,2.10
2023-02-06T21:43:12.205Z,2.17
2023-02-06T21:45:40.033Z,2.20
2023-02-06T21:48:07.559Z,1.90
2023-02-06T21:50:37.565Z,2.20
2023-02-06T21:53:05.065Z,2.27
2023-02-06T21:55:32.493Z,2.67
2023-02-06T21:58:00.897Z,2.60
2023-02-06T22:00:28.585Z,2.47
2023-02-06T22:02:56.006Z,2.70
2023-02-06T22:05:23.935Z,2.50
2023-02-06T22:07:52.566Z,2.60
2023-02-06T22:10:19.920Z,2.80
2023-02-06T22:12:49.059Z,2.73
2023-02-06T22:15:16.513Z,3.00
2023-02-06T22:17:43.880Z,3.10
2023-02-06T22:20:11.438Z,2.80
2023-02-06T22:22:39.551Z,3.40
2023-02-06T22:25:08.986Z,3.40
2023-02-06T22:27:36.561Z,3.53
2023-02-06T22:30:04.081Z,3.53
2023-02-06T22:32:31.441Z,3.43
2023-02-06T22:34:59.345Z,3.87
2023-02-06T22:37:26.902Z,3.87
2023-02-06T22:39:55.409Z,3.70
2023-02-06T22:42:24.655Z,3.83
2023-02-06T22:44:51.974Z,3.80
2023-02-06T22:47:19.333Z,3.93
2023-02-06T22:49:46.824Z,4.43
2023-02-06T22:52:28.089Z,3.93
2023-02-06T22:54:55.406Z,4.00
2023-02-06T22:57:24.687Z,4.00
2023-02-06T22:59:51.993Z,4.13
2023-02-06T23:02:19.422Z,4.30
2023-02-06T23:04:46.794Z,3.73
2023-02-06T23:07:14.125Z,4.87
2023-02-06T23:09:41.480Z,5.27
2023-02-06T23:12:09.614Z,5.20
2023-02-06T23:14:38.306Z,5.73
2023-02-06T23:17:05.650Z,5.17
2023-02-06T23:19:33.166Z,5.83
2023-02-06T23:22:00.522Z,5.63
2023-02-06T23:24:27.880Z,5.80
2023-02-06T23:26:55.256Z,5.63
2023-02-06T23:29:23.838Z,5.73
2023-02-06T23:31:52.638Z,6.13
2023-02-06T23:34:20.380Z,5.87
2023-02-06T23:36:47.967Z,6.70
2023-02-06T23:39:15.340Z,6.87
2023-02-06T23:41:42.687Z,7.30
2023-02-06T23:44:11.120Z,6.37
2023-02-06T23:46:39.153Z,5.97
2023-02-06T23:49:07.880Z,6.70
2023-02-06T23:51:35.791Z,5.60
2023-02-06T23:54:03.432Z,6.17
2023-02-06T23:56:32.027Z,5.97
2023-02-06T23:59:00.476Z,5.90
